sensor_id;sensor_type;location;lat;lon;timestamp;pressure;altitude;pressure_sealevel;temperature;humidity
44659;BME280;30378;50.186;8.644;2022-08-01T00:01:54;100177.13;;;20.96;100.00
44659;BME280;30378;50.186;8.644;2022-08-01T00:04:21;100176.47;;;20.83;100.00
44659;BME280;30378;50.186;8.644;2022-08-01T00:06:48;100169.59;;;20.77;100.00
44659;BME280;30378;50.186;8.644;2022-08-01T00:09:15;100172.44;;;20.80;100.00
44659;BME280;30378;50.186;8.644;2022-08-01T00:11:42;100179.34;;;20.87;100.00
44659;BME280;30378;50.186;8.644;2022-08-01T00:14:09;100176.34;;;20.76;100.00
44659;BME280;30378;50.186;8.644;2022-08-01T00:16:36;100179.78;;;20.69;100.00
44659;BME280;30378;50.186;8.644;2022-08-01T00:19:04;100182.03;;;20.60;100.00
44659;BME280;30378;50.186;8.644;2022-08-01T00:21:31;100181.69;;;20.46;100.00
44659;BME280;30378;50.186;8.644;2022-08-01T00:23:58;100177.97;;;20.38;100.00
44659;BME280;30378;50.186;8.644;2022-08-01T00:26:26;100177.06;;;20.34;100.00
44659;BME280;30378;50.186;8.644;2022-08-01T00:28:53;100173.69;;;20.25;100.00
44659;BME280;30378;50.186;8.644;2022-08-01T00:31:20;100177.78;;;20.11;100.00
44659;BME280;30378;50.186;8.644;2022-08-01T00:33:47;100163.59;;;20.00;100.00
44659;BME280;30378;50.186;8.644;2022-08-01T00:36:14;100165.50;;;19.96;100.00
44659;BME280;30378;50.186;8.644;2022-08-01T00:38:41;100169.97;;;20.01;100.00
44659;BME280;30378;50.186;8.644;2022-08-01T00:41:08;100164.75;;;19.99;100.00
44659;BME280;30378;50.186;8.644;2022-08-01T00:43:35;100167.28;;;20.05;100.00
44659;BME280;30378;50.186;8.644;2022-08-01T00:46:02;100175.28;;;19.90;100.00
44659;BME280;30378;50.186;8.644;2022-08-01T00:48:29;100174.50;;;19.90;100.00
44659;BME280;30378;50.186;8.644;2022-08-01T00:50:56;100175.28;;;19.90;100.00
44659;BME280;30378;50.186;8.644;2022-08-01T00:53:24;100173.94;;;20.00;100.00
44659;BME280;30378;50.186;8.644;2022-08-01T00:55:51;100171.34;;;19.91;100.00
44659;BME280;30378;50.186;8.644;2022-08-01T00:58:19;100177.63;;;19.88;100.00
44659;BME280;30378;50.186;8.644;2022-08-01T01:00:46;100175.31;;;19.74;100.00
44659;BME280;30378;50.186;8.644;2022-08-01T01:03:13;100180.63;;;19.64;100.00
44659;BME280;30378;50.186;8.644;2022-08-01T01:06:30;100178.94;;;19.59;100.00
44659;BME280;30378;50.186;8.644;2022-08-01T01:08:43;100180.19;;;19.61;100.00
44659;BME280;30378;50.186;8.644;2022-08-01T01:11:25;100177.75;;;19.60;100.00
44659;BME280;30378;50.186;8.644;2022-08-01T01:14:04;100182.16;;;19.61;100.00
44659;BME280;30378;50.186;8.644;2022-08-01T01:16:33;100175.31;;;19.58;100.00
44659;BME280;30378;50.186;8.644;2022-08-01T01:19:03;100174.06;;;19.56;100.00
44659;BME280;30378;50.186;8.644;2022-08-01T01:21:39;100181.78;;;19.62;100.00
44659;BME280;30378;50.186;8.644;2022-08-01T01:24:37;100184.13;;;19.60;100.00
44659;BME280;30378;50.186;8.644;2022-08-01T01:27:17;100175.06;;;19.64;100.00
44659;BME280;30378;50.186;8.644;2022-08-01T01:29:50;100179.44;;;19.65;100.00
44659;BME280;30378;50.186;8.644;2022-08-01T01:32:46;100180.28;;;19.81;100.00
44659;BME280;30378;50.186;8.644;2022-08-01T01:35:21;100180.72;;;19.83;100.00
44659;BME280;30378;50.186;8.644;2022-08-01T01:37:56;100185.13;;;19.84;100.00
44659;BME280;30378;50.186;8.644;2022-08-01T01:40:25;100188.56;;;19.77;100.00
44659;BME280;30378;50.186;8.644;2022-08-01T01:42:55;100188.25;;;19.83;100.00
44659;BME280;30378;50.186;8.644;2022-08-01T01:45:26;100194.03;;;19.90;100.00
44659;BME280;30378;50.186;8.644;2022-08-01T01:47:54;100188.53;;;19.93;100.00
44659;BME280;30378;50.186;8.644;2022-08-01T01:50:24;100189.97;;;19.87;100.00
44659;BME280;30378;50.186;8.644;2022-08-01T01:52:53;100191.00;;;19.79;100.00
44659;BME280;30378;50.186;8.644;2022-08-01T01:55:23;100200.25;;;19.67;100.00
44659;BME280;30378;50.186;8.644;2022-08-01T01:57:51;100191.88;;;19.67;100.00
44659;BME280;30378;50.186;8.644;2022-08-01T02:00:19;100200.94;;;19.64;100.00
44659;BME280;30378;50.186;8.644;2022-08-01T02:02:46;100196.00;;;19.57;100.00
44659;BME280;30378;50.186;8.644;2022-08-01T02:05:14;100197.72;;;19.46;100.00
44659;BME280;30378;50.186;8.644;2022-08-01T02:07:43;100202.41;;;19.42;100.00
44659;BME280;30378;50.186;8.644;2022-08-01T02:10:11;100192.59;;;19.48;100.00
44659;BME280;30378;50.186;8.644;2022-08-01T02:12:43;100201.94;;;19.56;100.00
44659;BME280;30378;50.186;8.644;2022-08-01T02:15:13;100207.72;;;19.47;100.00
44659;BME280;30378;50.186;8.644;2022-08-01T02:17:43;100210.31;;;19.40;100.00
44659;BME280;30378;50.186;8.644;2022-08-01T02:20:12;100213.34;;;19.35;100.00
44659;BME280;30378;50.186;8.644;2022-08-01T02:22:46;100211.09;;;19.25;100.00
44659;BME280;30378;50.186;8.644;2022-08-01T02:30:36;100208.16;;;19.33;100.00
44659;BME280;30378;50.186;8.644;2022-08-01T02:33:17;100215.97;;;19.28;100.00
44659;BME280;30378;50.186;8.644;2022-08-01T02:35:47;100209.66;;;19.31;100.00
44659;BME280;30378;50.186;8.644;2022-08-01T02:38:17;100205.44;;;19.37;100.00
44659;BME280;30378;50.186;8.644;2022-08-01T02:40:46;100210.13;;;19.33;100.00
44659;BME280;30378;50.186;8.644;2022-08-01T02:43:18;100196.38;;;19.40;100.00
44659;BME280;30378;50.186;8.644;2022-08-01T02:45:56;100209.16;;;19.57;100.00
44659;BME280;30378;50.186;8.644;2022-08-01T02:48:26;100205.09;;;19.54;100.00
44659;BME280;30378;50.186;8.644;2022-08-01T02:50:56;100202.13;;;19.47;100.00
44659;BME280;30378;50.186;8.644;2022-08-01T02:53:25;100207.06;;;19.38;100.00
44659;BME280;30378;50.186;8.644;2022-08-01T02:55:54;100203.75;;;19.32;100.00
44659;BME280;30378;50.186;8.644;2022-08-01T02:58:22;100207.84;;;19.22;100.00
44659;BME280;30378;50.186;8.644;2022-08-01T03:00:51;100210.09;;;19.17;100.00
44659;BME280;30378;50.186;8.644;2022-08-01T03:03:19;100212.16;;;19.04;100.00
44659;BME280;30378;50.186;8.644;2022-08-01T03:05:47;100218.53;;;19.05;100.00
44659;BME280;30378;50.186;8.644;2022-08-01T03:08:16;100220.75;;;18.99;100.00
44659;BME280;30378;50.186;8.644;2022-08-01T03:10:45;100215.50;;;19.10;100.00
44659;BME280;30378;50.186;8.644;2022-08-01T03:13:14;100221.78;;;19.22;100.00
44659;BME280;30378;50.186;8.644;2022-08-01T03:15:43;100216.97;;;19.35;100.00
44659;BME280;30378;50.186;8.644;2022-08-01T03:18:11;100221.34;;;19.36;100.00
44659;BME280;30378;50.186;8.644;2022-08-01T03:20:41;100224.47;;;19.19;100.00
44659;BME280;30378;50.186;8.644;2022-08-01T03:23:11;100218.34;;;19.13;100.00
44659;BME280;30378;50.186;8.644;2022-08-01T03:25:41;100224.91;;;19.05;100.00
44659;BME280;30378;50.186;8.644;2022-08-01T03:28:12;100230.66;;;19.12;100.00
44659;BME280;30378;50.186;8.644;2022-08-01T03:30:40;100226.66;;;19.26;100.00
44659;BME280;30378;50.186;8.644;2022-08-01T03:33:09;100220.56;;;19.36;100.00
44659;BME280;30378;50.186;8.644;2022-08-01T03:35:39;100223.00;;;19.53;100.00
44659;BME280;30378;50.186;8.644;2022-08-01T03:38:10;100230.25;;;19.42;100.00
44659;BME280;30378;50.186;8.644;2022-08-01T03:40:47;100236.47;;;19.51;100.00
44659;BME280;30378;50.186;8.644;2022-08-01T03:43:23;100233.84;;;19.42;100.00
44659;BME280;30378;50.186;8.644;2022-08-01T03:45:59;100235.19;;;19.33;100.00
44659;BME280;30378;50.186;8.644;2022-08-01T03:48:29;100237.25;;;19.20;100.00
44659;BME280;30378;50.186;8.644;2022-08-01T03:50:59;100240.63;;;19.13;100.00
44659;BME280;30378;50.186;8.644;2022-08-01T03:53:32;100235.81;;;19.26;100.00
44659;BME280;30378;50.186;8.644;2022-08-01T03:56:01;100232.03;;;19.34;100.00
44659;BME280;30378;50.186;8.644;2022-08-01T03:58:30;100240.22;;;19.27;100.00
44659;BME280;30378;50.186;8.644;2022-08-01T04:00:58;100241.63;;;19.21;100.00
44659;BME280;30378;50.186;8.644;2022-08-01T04:03:25;100232.28;;;19.13;100.00
44659;BME280;30378;50.186;8.644;2022-08-01T04:05:52;100238.13;;;19.08;100.00
44659;BME280;30378;50.186;8.644;2022-08-01T04:08:19;100226.78;;;19.01;100.00
44659;BME280;30378;50.186;8.644;2022-08-01T04:10:46;100225.78;;;18.93;100.00
44659;BME280;30378;50.186;8.644;2022-08-01T04:13:13;100234.97;;;18.81;100.00
44659;BME280;30378;50.186;8.644;2022-08-01T04:15:40;100229.91;;;18.71;100.00
44659;BME280;30378;50.186;8.644;2022-08-01T04:18:07;100225.75;;;18.65;100.00
44659;BME280;30378;50.186;8.644;2022-08-01T04:20:34;100230.16;;;18.66;100.00
44659;BME280;30378;50.186;8.644;2022-08-01T04:23:02;100227.13;;;18.71;100.00
44659;BME280;30378;50.186;8.644;2022-08-01T04:25:32;100232.91;;;18.78;100.00
44659;BME280;30378;50.186;8.644;2022-08-01T04:28:02;100233.31;;;18.93;100.00
44659;BME280;30378;50.186;8.644;2022-08-01T04:30:32;100241.69;;;18.93;100.00
44659;BME280;30378;50.186;8.644;2022-08-01T04:33:04;100246.91;;;18.94;100.00
44659;BME280;30378;50.186;8.644;2022-08-01T04:35:34;100239.78;;;18.97;100.00
44659;BME280;30378;50.186;8.644;2022-08-01T04:38:03;100249.34;;;18.96;100.00
44659;BME280;30378;50.186;8.644;2022-08-01T04:40:32;100254.63;;;19.01;100.00
44659;BME280;30378;50.186;8.644;2022-08-01T04:43:00;100258.31;;;19.05;100.00
44659;BME280;30378;50.186;8.644;2022-08-01T04:45:28;100265.97;;;19.08;100.00
44659;BME280;30378;50.186;8.644;2022-08-01T04:47:56;100270.56;;;19.16;100.00
44659;BME280;30378;50.186;8.644;2022-08-01T04:50:24;100277.94;;;19.25;100.00
44659;BME280;30378;50.186;8.644;2022-08-01T04:52:51;100270.94;;;19.31;100.00
44659;BME280;30378;50.186;8.644;2022-08-01T04:55:18;100263.34;;;19.44;100.00
44659;BME280;30378;50.186;8.644;2022-08-01T04:57:46;100273.59;;;19.55;100.00
44659;BME280;30378;50.186;8.644;2022-08-01T05:00:14;100278.09;;;19.60;100.00
44659;BME280;30378;50.186;8.644;2022-08-01T05:02:43;100282.59;;;19.65;100.00
44659;BME280;30378;50.186;8.644;2022-08-01T05:05:10;100286.56;;;19.64;100.00
44659;BME280;30378;50.186;8.644;2022-08-01T05:07:37;100289.69;;;19.62;100.00
44659;BME280;30378;50.186;8.644;2022-08-01T05:10:05;100283.31;;;19.61;100.00
44659;BME280;30378;50.186;8.644;2022-08-01T05:12:32;100278.66;;;19.66;100.00
44659;BME280;30378;50.186;8.644;2022-08-01T05:14:59;100282.81;;;19.72;100.00
44659;BME280;30378;50.186;8.644;2022-08-01T05:17:26;100281.66;;;19.73;100.00
44659;BME280;30378;50.186;8.644;2022-08-01T05:19:54;100283.34;;;19.77;100.00
44659;BME280;30378;50.186;8.644;2022-08-01T05:22:20;100283.91;;;19.83;100.00
44659;BME280;30378;50.186;8.644;2022-08-01T05:24:49;100285.59;;;19.88;100.00
44659;BME280;30378;50.186;8.644;2022-08-01T05:27:16;100288.84;;;19.90;100.00
44659;BME280;30378;50.186;8.644;2022-08-01T05:29:43;100279.66;;;19.89;100.00
44659;BME280;30378;50.186;8.644;2022-08-01T05:32:10;100284.94;;;19.94;100.00
44659;BME280;30378;50.186;8.644;2022-08-01T05:34:37;100283.09;;;19.98;100.00
44659;BME280;30378;50.186;8.644;2022-08-01T05:37:04;100285.59;;;20.04;100.00
44659;BME280;30378;50.186;8.644;2022-08-01T05:39:31;100284.22;;;20.13;100.00
44659;BME280;30378;50.186;8.644;2022-08-01T05:41:58;100282.16;;;20.26;100.00
44659;BME280;30378;50.186;8.644;2022-08-01T05:44:25;100293.72;;;20.44;100.00
44659;BME280;30378;50.186;8.644;2022-08-01T05:46:52;100289.09;;;20.68;100.00
44659;BME280;30378;50.186;8.644;2022-08-01T05:49:19;100291.94;;;20.91;100.00
44659;BME280;30378;50.186;8.644;2022-08-01T05:51:46;100291.06;;;21.06;100.00
44659;BME280;30378;50.186;8.644;2022-08-01T05:54:13;100287.00;;;21.23;100.00
44659;BME280;30378;50.186;8.644;2022-08-01T05:56:40;100289.19;;;21.33;100.00
44659;BME280;30378;50.186;8.644;2022-08-01T05:59:07;100287.50;;;21.48;100.00
44659;BME280;30378;50.186;8.644;2022-08-01T06:01:34;100295.84;;;21.68;100.00
44659;BME280;30378;50.186;8.644;2022-08-01T06:04:01;100298.13;;;21.62;100.00
44659;BME280;30378;50.186;8.644;2022-08-01T06:06:28;100296.53;;;21.84;100.00
44659;BME280;30378;50.186;8.644;2022-08-01T06:08:55;100292.78;;;21.99;100.00
44659;BME280;30378;50.186;8.644;2022-08-01T06:11:22;100300.91;;;22.08;100.00
44659;BME280;30378;50.186;8.644;2022-08-01T06:13:49;100297.25;;;22.04;100.00
44659;BME280;30378;50.186;8.644;2022-08-01T06:16:16;100304.28;;;21.94;100.00
44659;BME280;30378;50.186;8.644;2022-08-01T06:18:43;100308.09;;;21.83;100.00
44659;BME280;30378;50.186;8.644;2022-08-01T06:21:10;100312.00;;;21.78;100.00
44659;BME280;30378;50.186;8.644;2022-08-01T06:23:37;100312.06;;;21.82;100.00
44659;BME280;30378;50.186;8.644;2022-08-01T06:26:04;100313.00;;;21.89;100.00
44659;BME280;30378;50.186;8.644;2022-08-01T06:28:31;100315.84;;;22.16;100.00
44659;BME280;30378;50.186;8.644;2022-08-01T06:30:58;100324.72;;;22.22;100.00
44659;BME280;30378;50.186;8.644;2022-08-01T06:33:26;100320.47;;;22.31;100.00
44659;BME280;30378;50.186;8.644;2022-08-01T06:35:53;100317.06;;;22.42;100.00
44659;BME280;30378;50.186;8.644;2022-08-01T06:38:21;100324.88;;;22.55;100.00
44659;BME280;30378;50.186;8.644;2022-08-01T06:40:49;100318.13;;;22.60;100.00
44659;BME280;30378;50.186;8.644;2022-08-01T06:43:16;100327.19;;;22.50;100.00
44659;BME280;30378;50.186;8.644;2022-08-01T06:45:43;100323.56;;;22.49;100.00
44659;BME280;30378;50.186;8.644;2022-08-01T06:48:10;100322.56;;;22.61;100.00
44659;BME280;30378;50.186;8.644;2022-08-01T06:50:37;100324.75;;;22.75;100.00
44659;BME280;30378;50.186;8.644;2022-08-01T06:53:04;100331.53;;;23.04;100.00
44659;BME280;30378;50.186;8.644;2022-08-01T06:55:31;100336.13;;;23.20;100.00
44659;BME280;30378;50.186;8.644;2022-08-01T06:57:58;100329.50;;;23.35;100.00
44659;BME280;30378;50.186;8.644;2022-08-01T07:00:26;100330.06;;;23.51;100.00
44659;BME280;30378;50.186;8.644;2022-08-01T07:02:55;100327.97;;;23.79;100.00
44659;BME280;30378;50.186;8.644;2022-08-01T07:05:23;100320.56;;;24.01;100.00
44659;BME280;30378;50.186;8.644;2022-08-01T07:07:50;100329.53;;;24.17;100.00
44659;BME280;30378;50.186;8.644;2022-08-01T07:10:17;100326.53;;;24.47;100.00
44659;BME280;30378;50.186;8.644;2022-08-01T07:12:44;100321.88;;;25.97;100.00
44659;BME280;30378;50.186;8.644;2022-08-01T07:15:11;100335.41;;;27.09;91.59
44659;BME280;30378;50.186;8.644;2022-08-01T07:17:40;100331.94;;;30.80;62.88
44659;BME280;30378;50.186;8.644;2022-08-01T07:20:10;100330.34;;;32.08;53.18
44659;BME280;30378;50.186;8.644;2022-08-01T07:22:38;100329.13;;;34.42;48.06
44659;BME280;30378;50.186;8.644;2022-08-01T07:25:05;100333.44;;;31.81;49.66
44659;BME280;30378;50.186;8.644;2022-08-01T07:27:33;100336.56;;;29.76;54.67
44659;BME280;30378;50.186;8.644;2022-08-01T07:30:00;100334.06;;;29.81;58.30
44659;BME280;30378;50.186;8.644;2022-08-01T07:32:27;100330.66;;;29.01;60.96
44659;BME280;30378;50.186;8.644;2022-08-01T07:34:56;100321.28;;;29.08;63.37
44659;BME280;30378;50.186;8.644;2022-08-01T07:37:23;100325.34;;;29.07;63.11
44659;BME280;30378;50.186;8.644;2022-08-01T07:39:50;100326.59;;;29.64;61.85
44659;BME280;30378;50.186;8.644;2022-08-01T07:42:17;100329.28;;;30.25;60.73
44659;BME280;30378;50.186;8.644;2022-08-01T07:44:44;100325.97;;;30.74;57.36
44659;BME280;30378;50.186;8.644;2022-08-01T07:47:11;100334.94;;;31.69;54.31
44659;BME280;30378;50.186;8.644;2022-08-01T07:49:38;100322.97;;;30.61;56.27
44659;BME280;30378;50.186;8.644;2022-08-01T07:52:07;100322.00;;;30.01;57.99
44659;BME280;30378;50.186;8.644;2022-08-01T07:54:35;100328.53;;;29.43;58.40
44659;BME280;30378;50.186;8.644;2022-08-01T07:57:02;100329.56;;;29.26;61.32
44659;BME280;30378;50.186;8.644;2022-08-01T07:59:30;100327.56;;;29.54;59.65
44659;BME280;30378;50.186;8.644;2022-08-01T08:01:57;100327.31;;;29.14;58.99
44659;BME280;30378;50.186;8.644;2022-08-01T08:04:24;100323.78;;;28.68;61.38
44659;BME280;30378;50.186;8.644;2022-08-01T08:06:52;100325.81;;;27.70;66.93
44659;BME280;30378;50.186;8.644;2022-08-01T08:09:20;100330.81;;;28.04;71.47
44659;BME280;30378;50.186;8.644;2022-08-01T08:11:47;100329.75;;;27.83;66.79
44659;BME280;30378;50.186;8.644;2022-08-01T08:14:17;100330.28;;;28.20;66.28
44659;BME280;30378;50.186;8.644;2022-08-01T08:16:45;100332.25;;;28.26;67.28
44659;BME280;30378;50.186;8.644;2022-08-01T08:19:12;100329.44;;;28.23;65.26
44659;BME280;30378;50.186;8.644;2022-08-01T08:21:40;100337.81;;;27.88;69.51
44659;BME280;30378;50.186;8.644;2022-08-01T08:24:08;100340.41;;;27.58;69.13
44659;BME280;30378;50.186;8.644;2022-08-01T08:26:49;100338.16;;;27.20;72.09
44659;BME280;30378;50.186;8.644;2022-08-01T08:29:16;100348.69;;;27.09;81.27
44659;BME280;30378;50.186;8.644;2022-08-01T08:31:44;100337.47;;;26.95;84.12
44659;BME280;30378;50.186;8.644;2022-08-01T08:34:11;100340.31;;;26.84;81.10
44659;BME280;30378;50.186;8.644;2022-08-01T08:36:38;100336.34;;;26.63;85.78
44659;BME280;30378;50.186;8.644;2022-08-01T08:39:06;100334.34;;;26.42;85.41
44659;BME280;30378;50.186;8.644;2022-08-01T08:41:33;100333.94;;;26.33;85.06
44659;BME280;30378;50.186;8.644;2022-08-01T08:44:08;100344.00;;;26.12;86.90
44659;BME280;30378;50.186;8.644;2022-08-01T08:46:41;100341.19;;;26.20;89.48
44659;BME280;30378;50.186;8.644;2022-08-01T08:49:10;100338.78;;;26.25;83.74
44659;BME280;30378;50.186;8.644;2022-08-01T08:51:39;100349.66;;;26.20;92.33
44659;BME280;30378;50.186;8.644;2022-08-01T08:54:10;100341.19;;;26.34;85.29
44659;BME280;30378;50.186;8.644;2022-08-01T08:56:38;100345.63;;;26.10;82.42
44659;BME280;30378;50.186;8.644;2022-08-01T08:59:06;100340.78;;;26.36;88.77
44659;BME280;30378;50.186;8.644;2022-08-01T09:01:33;100335.88;;;26.94;82.50
44659;BME280;30378;50.186;8.644;2022-08-01T09:04:03;100343.81;;;27.17;77.26
44659;BME280;30378;50.186;8.644;2022-08-01T09:06:31;100340.59;;;27.25;72.33
44659;BME280;30378;50.186;8.644;2022-08-01T09:08:59;100341.28;;;27.44;80.01
44659;BME280;30378;50.186;8.644;2022-08-01T09:11:26;100342.91;;;27.45;74.29
44659;BME280;30378;50.186;8.644;2022-08-01T09:14:16;100347.94;;;26.87;79.06
44659;BME280;30378;50.186;8.644;2022-08-01T09:17:02;100343.63;;;26.00;73.63
44659;BME280;30378;50.186;8.644;2022-08-01T09:19:41;100351.22;;;26.53;73.91
44659;BME280;30378;50.186;8.644;2022-08-01T09:22:13;100352.84;;;26.68;75.55
44659;BME280;30378;50.186;8.644;2022-08-01T09:24:41;100350.38;;;26.81;75.93
44659;BME280;30378;50.186;8.644;2022-08-01T09:27:19;100337.16;;;26.24;73.12
44659;BME280;30378;50.186;8.644;2022-08-01T09:29:47;100344.69;;;27.80;64.04
44659;BME280;30378;50.186;8.644;2022-08-01T09:32:14;100342.44;;;27.54;65.37
44659;BME280;30378;50.186;8.644;2022-08-01T09:34:41;100341.84;;;29.46;66.08
44659;BME280;30378;50.186;8.644;2022-08-01T09:37:08;100342.72;;;31.49;55.40
44659;BME280;30378;50.186;8.644;2022-08-01T09:39:36;100341.47;;;31.50;53.02
44659;BME280;30378;50.186;8.644;2022-08-01T09:42:21;100344.81;;;31.45;51.11
44659;BME280;30378;50.186;8.644;2022-08-01T09:44:49;100332.81;;;32.39;50.55
44659;BME280;30378;50.186;8.644;2022-08-01T09:47:18;100337.03;;;32.01;47.11
44659;BME280;30378;50.186;8.644;2022-08-01T09:49:54;100327.69;;;34.11;46.11
44659;BME280;30378;50.186;8.644;2022-08-01T09:52:24;100326.78;;;33.25;47.31
44659;BME280;30378;50.186;8.644;2022-08-01T09:55:03;100329.34;;;33.06;45.38
44659;BME280;30378;50.186;8.644;2022-08-01T09:57:32;100337.06;;;30.89;46.35
44659;BME280;30378;50.186;8.644;2022-08-01T10:00:00;100326.66;;;31.02;47.74
44659;BME280;30378;50.186;8.644;2022-08-01T10:02:39;100322.19;;;30.81;49.83
44659;BME280;30378;50.186;8.644;2022-08-01T10:05:09;100331.72;;;31.31;50.97
44659;BME280;30378;50.186;8.644;2022-08-01T10:07:56;100327.44;;;32.12;48.35
44659;BME280;30378;50.186;8.644;2022-08-01T10:10:23;100335.00;;;32.93;45.82
44659;BME280;30378;50.186;8.644;2022-08-01T10:12:51;100326.94;;;31.08;44.94
44659;BME280;30378;50.186;8.644;2022-08-01T10:15:19;100322.81;;;29.47;48.90
44659;BME280;30378;50.186;8.644;2022-08-01T10:17:55;100336.97;;;27.18;54.48
44659;BME280;30378;50.186;8.644;2022-08-01T10:20:26;100336.34;;;26.42;58.07
44659;BME280;30378;50.186;8.644;2022-08-01T10:22:54;100327.38;;;26.97;58.41
44659;BME280;30378;50.186;8.644;2022-08-01T10:25:22;100325.69;;;27.18;58.18
44659;BME280;30378;50.186;8.644;2022-08-01T10:27:52;100328.09;;;27.26;63.49
44659;BME280;30378;50.186;8.644;2022-08-01T10:30:22;100324.97;;;27.77;61.06
44659;BME280;30378;50.186;8.644;2022-08-01T10:32:50;100316.84;;;27.82;63.49
44659;BME280;30378;50.186;8.644;2022-08-01T10:35:19;100313.19;;;27.89;59.33
44659;BME280;30378;50.186;8.644;2022-08-01T10:37:47;100316.41;;;29.12;53.05
44659;BME280;30378;50.186;8.644;2022-08-01T10:40:14;100308.41;;;30.16;56.15
44659;BME280;30378;50.186;8.644;2022-08-01T10:42:56;100305.44;;;31.63;49.59
44659;BME280;30378;50.186;8.644;2022-08-01T10:45:23;100311.03;;;31.50;46.61
44659;BME280;30378;50.186;8.644;2022-08-01T10:50:35;100302.44;;;30.34;51.47
44659;BME280;30378;50.186;8.644;2022-08-01T10:58:27;100295.75;;;28.81;52.05
44659;BME280;30378;50.186;8.644;2022-08-01T11:11:56;100285.13;;;28.16;56.19
44659;BME280;30378;50.186;8.644;2022-08-01T11:14:19;100297.84;;;27.90;63.28
44659;BME280;30378;50.186;8.644;2022-08-01T11:16:52;100299.72;;;27.52;56.11
44659;BME280;30378;50.186;8.644;2022-08-01T11:19:19;100289.19;;;27.63;59.13
44659;BME280;30378;50.186;8.644;2022-08-01T11:27:29;100280.53;;;27.84;55.38
44659;BME280;30378;50.186;8.644;2022-08-01T11:35:32;100272.47;;;27.83;54.51
44659;BME280;30378;50.186;8.644;2022-08-01T11:38:24;100261.59;;;29.30;50.70
44659;BME280;30378;50.186;8.644;2022-08-01T11:44:00;100266.94;;;26.98;55.79
44659;BME280;30378;50.186;8.644;2022-08-01T11:47:05;100252.00;;;27.01;57.09
44659;BME280;30378;50.186;8.644;2022-08-01T11:54:33;100251.25;;;27.60;55.00
44659;BME280;30378;50.186;8.644;2022-08-01T11:57:04;100259.56;;;27.82;53.18
44659;BME280;30378;50.186;8.644;2022-08-01T11:59:45;100257.91;;;27.36;53.34
44659;BME280;30378;50.186;8.644;2022-08-01T12:02:16;100250.06;;;27.61;59.33
44659;BME280;30378;50.186;8.644;2022-08-01T12:05:05;100245.19;;;28.14;61.71
44659;BME280;30378;50.186;8.644;2022-08-01T12:07:36;100243.44;;;28.96;54.27
44659;BME280;30378;50.186;8.644;2022-08-01T12:12:36;100240.84;;;28.44;50.53
44659;BME280;30378;50.186;8.644;2022-08-01T12:15:06;100233.56;;;28.05;54.86
44659;BME280;30378;50.186;8.644;2022-08-01T12:20:13;100241.13;;;28.15;53.37
44659;BME280;30378;50.186;8.644;2022-08-01T12:22:41;100239.53;;;28.14;52.28
44659;BME280;30378;50.186;8.644;2022-08-01T12:25:17;100246.22;;;27.37;52.74
44659;BME280;30378;50.186;8.644;2022-08-01T12:27:46;100238.63;;;27.23;53.71
44659;BME280;30378;50.186;8.644;2022-08-01T12:30:21;100233.91;;;28.48;53.06
44659;BME280;30378;50.186;8.644;2022-08-01T12:32:52;100237.03;;;29.23;51.12
44659;BME280;30378;50.186;8.644;2022-08-01T12:35:22;100240.59;;;29.54;52.29
44659;BME280;30378;50.186;8.644;2022-08-01T12:37:54;100232.09;;;29.00;50.25
44659;BME280;30378;50.186;8.644;2022-08-01T12:40:24;100225.97;;;29.05;50.78
44659;BME280;30378;50.186;8.644;2022-08-01T12:42:57;100230.00;;;29.04;51.23
44659;BME280;30378;50.186;8.644;2022-08-01T12:45:37;100227.28;;;29.78;54.25
44659;BME280;30378;50.186;8.644;2022-08-01T12:48:10;100230.56;;;29.77;52.39
44659;BME280;30378;50.186;8.644;2022-08-01T12:50:41;100232.59;;;30.00;50.05
44659;BME280;30378;50.186;8.644;2022-08-01T12:53:08;100222.38;;;30.26;48.36
44659;BME280;30378;50.186;8.644;2022-08-01T12:55:55;100226.34;;;29.34;53.75
44659;BME280;30378;50.186;8.644;2022-08-01T12:58:22;100223.22;;;29.29;51.90
44659;BME280;30378;50.186;8.644;2022-08-01T13:01:06;100230.63;;;29.19;53.51
44659;BME280;30378;50.186;8.644;2022-08-01T13:03:34;100227.00;;;28.87;52.39
44659;BME280;30378;50.186;8.644;2022-08-01T13:06:10;100231.75;;;28.63;52.21
44659;BME280;30378;50.186;8.644;2022-08-01T13:08:37;100231.28;;;28.31;54.20
44659;BME280;30378;50.186;8.644;2022-08-01T13:11:08;100223.50;;;28.42;52.71
44659;BME280;30378;50.186;8.644;2022-08-01T13:13:47;100226.47;;;28.27;52.20
44659;BME280;30378;50.186;8.644;2022-08-01T13:16:17;100228.00;;;27.94;53.96
44659;BME280;30378;50.186;8.644;2022-08-01T13:18:49;100236.56;;;27.83;53.34
44659;BME280;30378;50.186;8.644;2022-08-01T13:21:22;100238.75;;;27.65;53.23
44659;BME280;30378;50.186;8.644;2022-08-01T13:24:09;100238.66;;;27.72;55.25
44659;BME280;30378;50.186;8.644;2022-08-01T13:26:51;100234.66;;;27.69;55.46
44659;BME280;30378;50.186;8.644;2022-08-01T13:29:21;100232.63;;;27.70;55.52
44659;BME280;30378;50.186;8.644;2022-08-01T13:31:49;100238.75;;;27.65;54.24
44659;BME280;30378;50.186;8.644;2022-08-01T13:34:16;100232.59;;;27.77;54.39
44659;BME280;30378;50.186;8.644;2022-08-01T13:36:43;100234.66;;;28.18;55.51
44659;BME280;30378;50.186;8.644;2022-08-01T13:39:14;100239.53;;;28.56;53.83
44659;BME280;30378;50.186;8.644;2022-08-01T13:42:00;100234.41;;;28.78;51.89
44659;BME280;30378;50.186;8.644;2022-08-01T13:44:28;100233.81;;;28.59;52.01
44659;BME280;30378;50.186;8.644;2022-08-01T13:46:55;100230.75;;;28.43;50.58
44659;BME280;30378;50.186;8.644;2022-08-01T13:49:23;100220.31;;;28.40;52.53